Time,TemperatureF,DewpointF,PressureIn,WindDirection,WindDirectionDegrees,WindSpeedMPH,WindSpeedGustMPH,Humidity,HourlyPrecipIn,Conditions,Clouds,dailyrainin,SoftwareType,DateUTC
2013-06-30 00:00:00,72.0,51.8,29.96,NE,51,3.0,7.0,49,0.00,CLR,CLR,0.00,WeatherDisplay:10.37,2013-06-30 05:00:00,
2013-06-30 00:06:00,71.8,51.6,29.96,ENE,58,1.0,3.0,49,0.00,CLR,CLR,0.00,WeatherDisplay:10.37,2013-06-30 05:06:00,
2013-06-30 00:12:00,71.5,51.8,29.96,NE,41,1.0,3.0,50,0.00,CLR,CLR,0.00,WeatherDisplay:10.37,2013-06-30 05:12:00,
2013-06-30 00:18:00,71.3,51.7,29.97,NE,55,3.0,5.0,50,0.00,CLR,CLR,0.00,WeatherDisplay:10.37,2013-06-30 05:18:00,
2013-06-30 00:24:00,71.1,52.0,29.97,ENE,68,3.0,3.0,51,0.00,CLR,CLR,0.00,WeatherDisplay:10.37,2013-06-30 05:24:00,
2013-06-30 00:30:00,70.7,51.7,29.97,NE,43,2.0,6.0,51,0.00,CLR,CLR,0.00,WeatherDisplay:10.37,2013-06-30 05:30:00,
2013-06-30 00:36:00,70.6,51.6,29.97,North,2,0.0,0.0,51,0.00,CLR,CLR,0.00,WeatherDisplay:10.37,2013-06-30 05:36:00,
2013-06-30 00:42:00,70.3,51.9,29.97,ENE,59,0.0,0.0,52,0.00,CLR,CLR,0.00,WeatherDisplay:10.37,2013-06-30 05:42:00,
2013-06-30 00:48:00,70.0,52.0,29.97,NW,314,0.0,0.0,53,0.00,CLR,CLR,0.00,WeatherDisplay:10.37,2013-06-30 05:48:00,
2013-06-30 00:54:00,69.8,52.4,29.97,NW,315,0.0,0.0,54,0.00,CLR,CLR,0.00,WeatherDisplay:10.37,2013-06-30 05:54:00,
2013-06-30 01:00:00,69.5,52.6,29.97,NNW,343,0.0,0.0,55,0.00,CLR,CLR,0.00,WeatherDisplay:10.37,2013-06-30 06:00:00,
2013-06-30 01:06:00,69.0,52.6,29.97,NW,312,0.0,0.0,56,0.00,CLR,CLR,0.00,WeatherDisplay:10.37,2013-06-30 06:06:00,
2013-06-30 01:12:00,68.5,52.7,29.97,NNW,345,0.0,0.0,57,0.00,CLR,CLR,0.00,WeatherDisplay:10.37,2013-06-30 06:12:00,
2013-06-30 01:18:00,68.1,52.8,29.98,NE,34,0.0,0.0,58,0.00,CLR,CLR,0.00,WeatherDisplay:10.37,2013-06-30 06:18:00,
2013-06-30 01:24:00,67.7,52.8,29.98,North,6,0.0,0.0,59,0.00,CLR,CLR,0.00,WeatherDisplay:10.37,2013-06-30 06:24:00,
2013-06-30 01:30:00,67.2,52.8,29.97,North,356,0.0,0.0,60,0.00,CLR,CLR,0.00,WeatherDisplay:10.37,2013-06-30 06:30:00,
2013-06-30 01:36:00,67.0,53.6,29.97,NNW,331,0.0,0.0,62,0.00,CLR,CLR,0.00,WeatherDisplay:10.37,2013-06-30 06:36:00,
2013-06-30 01:42:00,66.6,53.2,29.97,North,358,0.0,0.0,62,0.00,CLR,CLR,0.00,WeatherDisplay:10.37,2013-06-30 06:42:00,
2013-06-30 01:48:00,66.2,53.6,29.97,North,352,0.0,0.0,64,0.00,CLR,CLR,0.00,WeatherDisplay:10.37,2013-06-30 06:48:00,
2013-06-30 01:54:00,65.9,53.3,29.97,NNW,334,0.0,0.0,64,0.00,CLR,CLR,0.00,WeatherDisplay:10.37,2013-06-30 06:54:00,
2013-06-30 02:00:00,66.1,54.0,29.97,West,268,0.0,0.0,65,0.00,CLR,CLR,0.00,WeatherDisplay:10.37,2013-06-30 07:00:00,
2013-06-30 02:06:00,65.7,53.6,29.97,NNW,345,0.0,0.0,65,0.00,CLR,CLR,0.00,WeatherDisplay:10.37,2013-06-30 07:06:00,
2013-06-30 02:12:00,65.2,53.9,29.97,NNW,340,0.0,0.0,67,0.00,CLR,CLR,0.00,WeatherDisplay:10.37,2013-06-30 07:12:00,
2013-06-30 02:18:00,64.7,53.9,29.98,NW,324,0.0,0.0,68,0.00,CLR,CLR,0.00,WeatherDisplay:10.37,2013-06-30 07:18:00,
2013-06-30 02:24:00,64.4,54.0,29.98,North,2,0.0,0.0,69,0.00,CLR,CLR,0.00,WeatherDisplay:10.37,2013-06-30 07:24:00,
2013-06-30 02:30:00,64.3,53.9,29.97,ENE,66,0.0,0.0,69,0.00,CLR,CLR,0.00,WeatherDisplay:10.37,2013-06-30 07:30:00,
2013-06-30 02:36:00,64.1,54.1,29.97,ENE,69,0.0,0.0,70,0.00,CLR,CLR,0.00,WeatherDisplay:10.37,2013-06-30 07:36:00,
2013-06-30 02:42:00,63.9,54.3,29.98,NE,49,0.0,0.0,71,0.00,CLR,CLR,0.00,WeatherDisplay:10.37,2013-06-30 07:42:00,
2013-06-30 02:48:00,64.3,54.7,29.98,WNW,301,0.0,0.0,71,0.00,CLR,CLR,0.00,WeatherDisplay:10.37,2013-06-30 07:48:00,
2013-06-30 02:54:00,64.1,54.5,29.98,WNW,285,0.0,0.0,71,0.00,CLR,CLR,0.00,WeatherDisplay:10.37,2013-06-30 07:54:00,
2013-06-30 03:00:00,63.7,54.5,29.98,WNW,298,0.0,0.0,72,0.00,CLR,CLR,0.00,WeatherDisplay:10.37,2013-06-30 08:00:00,
2013-06-30 03:06:00,63.5,55.4,29.98,WNW,297,0.0,0.0,75,0.00,CLR,CLR,0.00,WeatherDisplay:10.37,2013-06-30 08:06:00,
2013-06-30 03:12:00,63.5,55.4,29.98,WNW,296,0.0,0.0,75,0.00,CLR,CLR,0.00,WeatherDisplay:10.37,2013-06-30 08:12:00,
2013-06-30 03:18:00,63.4,55.3,29.98,WNW,288,0.0,0.0,75,0.00,CLR,CLR,0.00,WeatherDisplay:10.37,2013-06-30 08:18:00,
2013-06-30 03:24:00,63.3,55.6,29.98,WNW,287,0.0,0.0,76,0.00,CLR,CLR,0.00,WeatherDisplay:10.37,2013-06-30 08:24:00,
2013-06-30 03:30:00,63.0,55.3,29.98,WNW,298,0.0,0.0,76,0.00,CLR,CLR,0.00,WeatherDisplay:10.37,2013-06-30 08:30:00,
2013-06-30 03:36:00,62.6,55.2,29.98,NW,307,0.0,0.0,77,0.00,CLR,CLR,0.00,WeatherDisplay:10.37,2013-06-30 08:36:00,
2013-06-30 03:42:00,62.6,55.6,29.98,NW,309,0.0,0.0,78,0.00,CLR,CLR,0.00,WeatherDisplay:10.37,2013-06-30 08:42:00,
2013-06-30 03:48:00,62.3,55.3,29.98,NW,308,0.0,0.0,78,0.00,CLR,CLR,0.00,WeatherDisplay:10.37,2013-06-30 08:48:00,
2013-06-30 03:54:00,61.9,55.3,29.98,NW,307,0.0,0.0,79,0.00,CLR,CLR,0.00,WeatherDisplay:10.37,2013-06-30 08:54:00,
2013-06-30 04:00:00,61.9,55.6,29.98,NW,308,0.0,0.0,80,0.00,CLR,CLR,0.00,WeatherDisplay:10.37,2013-06-30 09:00:00,
2013-06-30 04:06:00,61.7,55.4,29.98,NW,310,0.0,0.0,80,0.00,CLR,CLR,0.00,WeatherDisplay:10.37,2013-06-30 09:06:00,
2013-06-30 04:12:00,61.7,55.8,29.98,WNW,303,0.0,0.0,81,0.00,CLR,CLR,0.00,WeatherDisplay:10.37,2013-06-30 09:12:00,
2013-06-30 04:18:00,61.5,55.6,29.98,North,355,0.0,0.0,81,0.00,CLR,CLR,0.00,WeatherDisplay:10.37,2013-06-30 09:18:00,
2013-06-30 04:24:00,61.4,55.8,29.98,NNE,25,0.0,0.0,82,0.00,CLR,CLR,0.00,WeatherDisplay:10.37,2013-06-30 09:24:00,
2013-06-30 04:30:00,61.7,56.1,29.98,WNW,288,0.0,0.0,82,0.00,CLR,CLR,0.00,WeatherDisplay:10.37,2013-06-30 09:30:00,
2013-06-30 04:36:00,61.5,56.0,29.98,West,272,0.0,0.0,82,0.00,CLR,CLR,0.00,WeatherDisplay:10.37,2013-06-30 09:36:00,
2013-06-30 04:42:00,61.4,56.5,29.98,WNW,288,0.0,0.0,84,0.00,CLR,CLR,0.00,WeatherDisplay:10.37,2013-06-30 09:42:00,
2013-06-30 04:48:00,61.4,56.5,29.99,WNW,296,0.0,0.0,84,0.00,CLR,CLR,0.00,WeatherDisplay:10.37,2013-06-30 09:48:00,
2013-06-30 04:54:00,61.2,56.3,29.99,WNW,294,0.0,0.0,84,0.00,CLR,CLR,0.00,WeatherDisplay:10.37,2013-06-30 09:54:00,
2013-06-30 05:00:00,61.2,56.3,29.99,WNW,299,0.0,0.0,84,0.00,CLR,CLR,0.00,WeatherDisplay:10.37,2013-06-30 10:00:00,
2013-06-30 05:06:00,61.2,56.3,29.98,WNW,294,0.0,0.0,84,0.00,CLR,CLR,0.00,WeatherDisplay:10.37,2013-06-30 10:06:00,
2013-06-30 05:12:00,61.4,56.5,29.99,WNW,295,0.0,0.0,84,0.00,CLR,CLR,0.00,WeatherDisplay:10.37,2013-06-30 10:12:00,
2013-06-30 05:18:00,61.4,56.5,29.99,WNW,295,0.0,0.0,84,0.00,CLR,CLR,0.00,WeatherDisplay:10.37,2013-06-30 10:18:00,
2013-06-30 05:24:00,61.3,56.5,29.99,WNW,300,0.0,0.0,84,0.00,CLR,CLR,0.00,WeatherDisplay:10.37,2013-06-30 10:24:00,
2013-06-30 05:30:00,60.8,55.9,29.99,NW,307,0.0,0.0,84,0.00,CLR,CLR,0.00,WeatherDisplay:10.37,2013-06-30 10:30:00,
2013-06-30 05:36:00,60.8,55.9,29.99,WNW,299,0.0,0.0,84,0.00,CLR,CLR,0.00,WeatherDisplay:10.37,2013-06-30 10:36:00,
2013-06-30 05:42:00,60.7,56.1,29.99,WNW,302,3.0,5.0,85,0.00,CLR,CLR,0.00,WeatherDisplay:10.37,2013-06-30 10:42:00,
2013-06-30 05:48:00,60.5,55.9,29.99,WNW,295,0.0,6.0,85,0.00,CLR,CLR,0.00,WeatherDisplay:10.37,2013-06-30 10:48:00,
2013-06-30 05:54:00,60.7,56.1,30.00,West,280,1.0,6.0,85,0.00,CLR,CLR,0.00,WeatherDisplay:10.37,2013-06-30 10:54:00,
2013-06-30 06:00:00,60.8,56.2,30.00,West,271,2.0,6.0,85,0.00,CLR,CLR,0.00,WeatherDisplay:10.37,2013-06-30 11:00:00,
2013-06-30 06:06:00,60.7,56.2,30.00,West,272,3.0,6.0,85,0.00,CLR,CLR,0.00,WeatherDisplay:10.37,2013-06-30 11:06:00,
2013-06-30 06:12:00,61.1,56.5,30.00,West,272,1.0,5.0,85,0.00,CLR,CLR,0.00,WeatherDisplay:10.37,2013-06-30 11:12:00,
2013-06-30 06:18:00,61.2,56.6,30.01,West,275,0.0,5.0,85,0.00,CLR,CLR,0.00,WeatherDisplay:10.37,2013-06-30 11:18:00,
2013-06-30 06:24:00,60.8,56.2,30.01,WNW,289,0.0,0.0,85,0.00,CLR,CLR,0.00,WeatherDisplay:10.37,2013-06-30 11:24:00,
2013-06-30 06:30:00,60.7,56.2,30.01,WNW,284,7.0,9.0,85,0.00,CLR,CLR,0.00,WeatherDisplay:10.37,2013-06-30 11:30:00,
2013-06-30 06:36:00,60.7,56.1,30.01,WNW,295,3.0,8.0,85,0.00,CLR,CLR,0.00,WeatherDisplay:10.37,2013-06-30 11:36:00,
2013-06-30 06:42:00,60.8,55.9,30.01,NW,306,5.0,7.0,84,0.00,CLR,CLR,0.00,WeatherDisplay:10.37,2013-06-30 11:42:00,
2013-06-30 06:48:00,61.2,56.3,30.01,West,275,1.0,7.0,84,0.00,CLR,CLR,0.00,WeatherDisplay:10.37,2013-06-30 11:48:00,
2013-06-30 06:54:00,61.2,56.3,30.02,WNW,284,5.0,8.0,84,0.00,CLR,CLR,0.00,WeatherDisplay:10.37,2013-06-30 11:54:00,
2013-06-30 07:00:00,61.6,56.0,30.02,WNW,289,3.0,6.0,82,0.00,CLR,CLR,0.00,WeatherDisplay:10.37,2013-06-30 12:00:00,
2013-06-30 07:06:00,61.8,56.0,30.02,WNW,292,0.0,6.0,81,0.00,CLR,CLR,0.00,WeatherDisplay:10.37,2013-06-30 12:06:00,
2013-06-30 07:12:00,62.3,56.4,30.02,WNW,292,2.0,5.0,81,0.00,CLR,CLR,0.00,WeatherDisplay:10.37,2013-06-30 12:12:00,
2013-06-30 07:18:00,62.3,56.4,30.02,WNW,293,7.0,9.0,81,0.00,CLR,CLR,0.00,WeatherDisplay:10.37,2013-06-30 12:18:00,
2013-06-30 07:24:00,62.5,56.5,30.02,WNW,298,7.0,10.0,81,0.00,CLR,CLR,0.00,WeatherDisplay:10.37,2013-06-30 12:24:00,
2013-06-30 07:30:00,62.8,56.8,30.03,WNW,303,3.0,7.0,81,0.00,CLR,CLR,0.00,WeatherDisplay:10.37,2013-06-30 12:30:00,
2013-06-30 07:36:00,63.0,56.7,30.03,NW,315,0.0,6.0,80,0.00,FEW,FEW,0.00,WeatherDisplay:10.37,2013-06-30 12:36:00,
2013-06-30 07:42:00,63.3,57.0,30.03,NNE,31,2.0,8.0,80,0.00,FEW,FEW,0.00,WeatherDisplay:10.37,2013-06-30 12:42:00,
2013-06-30 07:48:00,63.5,56.8,30.03,West,270,2.0,6.0,79,0.00,FEW,FEW,0.00,WeatherDisplay:10.37,2013-06-30 12:48:00,
2013-06-30 07:54:00,64.2,57.6,30.03,North,351,3.0,8.0,79,0.00,FEW,FEW,0.00,WeatherDisplay:10.37,2013-06-30 12:54:00,
2013-06-30 08:00:00,64.4,57.7,30.03,NW,308,3.0,5.0,79,0.00,FEW,FEW,0.00,WeatherDisplay:10.37,2013-06-30 13:00:00,
2013-06-30 08:06:00,64.8,57.4,30.04,WNW,297,9.0,12.0,77,0.00,FEW,FEW,0.00,WeatherDisplay:10.37,2013-06-30 13:06:00,
2013-06-30 08:12:00,65.3,57.9,30.04,West,277,5.0,11.0,77,0.00,FEW,FEW,0.00,WeatherDisplay:10.37,2013-06-30 13:12:00,
2013-06-30 08:18:00,65.9,58.1,30.04,WNW,288,7.0,9.0,76,0.00,FEW,FEW,0.00,WeatherDisplay:10.37,2013-06-30 13:18:00,
2013-06-30 08:24:00,66.5,58.3,30.04,West,279,5.0,8.0,75,0.00,FEW,FEW,0.00,WeatherDisplay:10.37,2013-06-30 13:24:00,
2013-06-30 08:30:00,67.2,57.8,30.04,WNW,285,7.0,8.0,72,0.00,FEW,FEW,0.00,WeatherDisplay:10.37,2013-06-30 13:30:00,
2013-06-30 08:36:00,68.4,58.6,30.04,WNW,287,1.0,5.0,71,0.00,FEW,FEW,0.00,WeatherDisplay:10.37,2013-06-30 13:36:00,
2013-06-30 08:42:00,68.8,58.2,30.05,NW,321,5.0,8.0,69,0.00,FEW,FEW,0.00,WeatherDisplay:10.37,2013-06-30 13:42:00,
2013-06-30 08:48:00,69.3,58.2,30.05,WNW,288,6.0,10.0,68,0.00,FEW,FEW,0.00,WeatherDisplay:10.37,2013-06-30 13:48:00,
2013-06-30 08:54:00,69.3,58.7,30.05,West,281,6.0,10.0,69,0.00,FEW,FEW,0.00,WeatherDisplay:10.37,2013-06-30 13:54:00,
2013-06-30 09:00:00,69.2,58.6,30.05,WNW,297,6.0,13.0,69,0.00,FEW,FEW,0.00,WeatherDisplay:10.37,2013-06-30 14:00:00,
2013-06-30 09:06:00,69.8,58.7,30.05,NW,316,6.0,7.0,68,0.00,FEW,FEW,0.00,WeatherDisplay:10.37,2013-06-30 14:06:00,
2013-06-30 09:12:00,70.4,59.3,30.05,NNW,348,3.0,10.0,68,0.00,FEW,FEW,0.00,WeatherDisplay:10.37,2013-06-30 14:12:00,
2013-06-30 09:18:00,70.9,59.4,30.05,NNW,330,2.0,7.0,67,0.00,FEW,FEW,0.00,WeatherDisplay:10.37,2013-06-30 14:18:00,
2013-06-30 09:24:00,71.6,58.7,30.05,North,5,7.0,8.0,64,0.00,FEW,FEW,0.00,WeatherDisplay:10.37,2013-06-30 14:24:00,
2013-06-30 09:30:00,72.0,59.1,30.05,NW,323,3.0,10.0,64,0.00,FEW,FEW,0.00,WeatherDisplay:10.37,2013-06-30 14:30:00,
2013-06-30 09:36:00,73.5,59.7,30.05,North,3,5.0,7.0,62,0.00,FEW,FEW,0.00,WeatherDisplay:10.37,2013-06-30 14:36:00,
2013-06-30 09:42:00,74.5,59.2,30.05,NNE,23,6.0,9.0,59,0.00,FEW,FEW,0.00,WeatherDisplay:10.37,2013-06-30 14:42:00,
2013-06-30 09:48:00,75.1,59.8,30.05,NNW,329,5.0,10.0,59,0.00,FEW,FEW,0.00,WeatherDisplay:10.37,2013-06-30 14:48:00,
2013-06-30 09:54:00,75.3,59.0,30.05,ENE,65,3.0,7.0,57,0.00,FEW,FEW,0.00,WeatherDisplay:10.37,2013-06-30 14:54:00,
2013-06-30 10:00:00,75.6,59.8,30.05,East,88,0.0,6.0,58,0.00,FEW,FEW,0.00,WeatherDisplay:10.37,2013-06-30 15:00:00,
2013-06-30 10:06:00,76.9,60.0,30.05,NNE,22,5.0,5.0,56,0.00,SCT,SCT,0.00,WeatherDisplay:10.37,2013-06-30 15:06:00,
2013-06-30 10:12:00,76.7,58.8,30.05,North,358,5.0,7.0,54,0.00,SCT,SCT,0.00,WeatherDisplay:10.37,2013-06-30 15:12:00,
2013-06-30 10:18:00,77.2,58.7,30.05,ENE,58,3.0,8.0,53,0.00,SCT,SCT,0.00,WeatherDisplay:10.37,2013-06-30 15:18:00,
2013-06-30 10:24:00,76.5,58.6,30.05,ENE,77,6.0,10.0,54,0.00,SCT,SCT,0.00,WeatherDisplay:10.37,2013-06-30 15:24:00,
2013-06-30 10:30:00,76.5,58.6,30.04,NNW,344,7.0,12.0,54,0.00,SCT,SCT,0.00,WeatherDisplay:10.37,2013-06-30 15:30:00,
2013-06-30 10:36:00,77.0,58.5,30.04,ENE,65,5.0,8.0,53,0.00,SCT,SCT,0.00,WeatherDisplay:10.37,2013-06-30 15:36:00,
2013-06-30 10:42:00,77.4,58.4,30.04,North,4,6.0,8.0,52,0.00,SCT,SCT,0.00,WeatherDisplay:10.37,2013-06-30 15:42:00,
2013-06-30 10:48:00,78.3,59.2,30.04,North,1,6.0,12.0,52,0.00,SCT,SCT,0.00,WeatherDisplay:10.37,2013-06-30 15:48:00,
2013-06-30 10:54:00,79.2,59.0,30.05,ENE,68,6.0,8.0,50,0.00,SCT,SCT,0.00,WeatherDisplay:10.37,2013-06-30 15:54:00,
2013-06-30 11:00:00,79.2,57.8,30.05,SE,135,5.0,7.0,48,0.00,SCT,SCT,0.00,WeatherDisplay:10.37,2013-06-30 16:00:00,
2013-06-30 11:06:00,78.8,57.4,30.04,NNW,338,7.0,9.0,48,0.00,SCT,SCT,0.00,WeatherDisplay:10.37,2013-06-30 16:06:00,
2013-06-30 11:12:00,78.9,55.7,30.04,NNE,31,9.0,12.0,45,0.00,SCT,SCT,0.00,WeatherDisplay:10.37,2013-06-30 16:12:00,
2013-06-30 11:18:00,78.7,55.6,30.04,NE,55,9.0,16.0,45,0.00,SCT,SCT,0.00,WeatherDisplay:10.37,2013-06-30 16:18:00,
2013-06-30 11:24:00,78.7,56.2,30.04,East,86,8.0,10.0,46,0.00,SCT,SCT,0.00,WeatherDisplay:10.37,2013-06-30 16:24:00,
2013-06-30 11:30:00,78.5,55.4,30.03,East,96,10.0,13.0,45,0.00,SCT,SCT,0.00,WeatherDisplay:10.37,2013-06-30 16:30:00,
2013-06-30 11:36:00,78.8,54.4,30.03,ESE,105,9.0,15.0,43,0.00,FEW,FEW,0.00,WeatherDisplay:10.37,2013-06-30 16:36:00,
2013-06-30 11:42:00,79.7,55.9,30.04,ESE,102,6.0,10.0,44,0.00,FEW,FEW,0.00,WeatherDisplay:10.37,2013-06-30 16:42:00,
2013-06-30 11:48:00,79.9,54.7,30.04,East,79,7.0,9.0,42,0.00,FEW,FEW,0.00,WeatherDisplay:10.37,2013-06-30 16:48:00,
2013-06-30 11:54:00,79.5,55.1,30.03,NNE,29,12.0,18.0,43,0.00,FEW,FEW,0.00,WeatherDisplay:10.37,2013-06-30 16:54:00,
2013-06-30 12:00:00,79.4,54.9,30.03,NNW,335,6.0,8.0,43,0.00,FEW,FEW,0.00,WeatherDisplay:10.37,2013-06-30 17:00:00,
2013-06-30 12:06:00,79.3,54.9,30.03,NNE,15,9.0,20.0,43,0.00,SCT,SCT,0.00,WeatherDisplay:10.37,2013-06-30 17:06:00,
2013-06-30 12:12:00,79.7,53.9,30.03,East,83,9.0,14.0,41,0.00,SCT,SCT,0.00,WeatherDisplay:10.37,2013-06-30 17:12:00,
2013-06-30 12:18:00,79.2,54.1,30.04,ENE,72,7.0,9.0,42,0.00,SCT,SCT,0.00,WeatherDisplay:10.37,2013-06-30 17:18:00,
2013-06-30 12:24:00,80.3,54.5,30.04,WNW,290,5.0,8.0,41,0.00,SCT,SCT,0.00,WeatherDisplay:10.37,2013-06-30 17:24:00,
2013-06-30 12:30:00,80.7,53.4,30.03,NW,314,7.0,15.0,39,0.00,SCT,SCT,0.00,WeatherDisplay:10.37,2013-06-30 17:30:00,
2013-06-30 12:36:00,81.0,53.0,30.03,East,86,7.0,10.0,38,0.00,SCT,SCT,0.00,WeatherDisplay:10.37,2013-06-30 17:36:00,
2013-06-30 12:42:00,80.8,53.6,30.02,SSW,206,3.0,8.0,39,0.00,SCT,SCT,0.00,WeatherDisplay:10.37,2013-06-30 17:42:00,
2013-06-30 12:48:00,80.9,52.9,30.02,NE,38,10.0,15.0,38,0.00,SCT,SCT,0.00,WeatherDisplay:10.37,2013-06-30 17:48:00,
2013-06-30 12:54:00,81.3,53.3,30.02,NW,326,10.0,15.0,38,0.00,SCT,SCT,0.00,WeatherDisplay:10.37,2013-06-30 17:54:00,
2013-06-30 13:00:00,81.2,52.4,30.02,West,267,8.0,14.0,37,0.00,SCT,SCT,0.00,WeatherDisplay:10.37,2013-06-30 18:00:00,
2013-06-30 13:06:00,80.8,52.8,30.02,North,5,8.0,12.0,38,0.00,SCT,SCT,0.00,WeatherDisplay:10.37,2013-06-30 18:06:00,
2013-06-30 13:12:00,81.2,53.1,30.02,South,173,6.0,6.0,38,0.00,SCT,SCT,0.00,WeatherDisplay:10.37,2013-06-30 18:12:00,
2013-06-30 13:18:00,81.4,52.6,30.02,SW,218,8.0,14.0,37,0.00,SCT,SCT,0.00,WeatherDisplay:10.37,2013-06-30 18:18:00,
2013-06-30 13:24:00,82.1,53.3,30.02,NE,48,8.0,13.0,37,0.00,SCT,SCT,0.00,WeatherDisplay:10.37,2013-06-30 18:24:00,
2013-06-30 13:30:00,82.1,52.5,30.02,NE,46,9.0,16.0,36,0.00,SCT,SCT,0.00,WeatherDisplay:10.37,2013-06-30 18:30:00,
2013-06-30 13:36:00,81.6,52.1,30.02,East,99,12.0,17.0,36,0.00,SCT,SCT,0.00,WeatherDisplay:10.37,2013-06-30 18:36:00,
2013-06-30 13:42:00,82.4,52.8,30.01,ESE,117,8.0,9.0,36,0.00,SCT,SCT,0.00,WeatherDisplay:10.37,2013-06-30 18:42:00,
2013-06-30 13:48:00,81.7,52.1,30.01,SE,130,10.0,12.0,36,0.00,SCT,SCT,0.00,WeatherDisplay:10.37,2013-06-30 18:48:00,
2013-06-30 13:54:00,83.0,52.5,30.01,East,101,5.0,8.0,35,0.00,SCT,SCT,0.00,WeatherDisplay:10.37,2013-06-30 18:54:00,
2013-06-30 14:00:00,82.8,53.2,30.01,ENE,58,7.0,12.0,36,0.00,SCT,SCT,0.00,WeatherDisplay:10.37,2013-06-30 19:00:00,
2013-06-30 14:06:00,82.0,52.4,30.01,NNE,27,9.0,13.0,36,0.00,SCT,SCT,0.00,WeatherDisplay:10.37,2013-06-30 19:06:00,
2013-06-30 14:12:00,82.3,50.3,30.01,North,355,7.0,11.0,33,0.00,SCT,SCT,0.00,WeatherDisplay:10.37,2013-06-30 19:12:00,
2013-06-30 14:18:00,83.0,50.9,30.01,NNW,334,9.0,15.0,33,0.00,SCT,SCT,0.00,WeatherDisplay:10.37,2013-06-30 19:18:00,
2013-06-30 14:24:00,82.7,51.5,30.01,North,10,6.0,10.0,34,0.00,SCT,SCT,0.00,WeatherDisplay:10.37,2013-06-30 19:24:00,
2013-06-30 14:30:00,83.7,51.5,30.01,ENE,63,6.0,12.0,33,0.00,SCT,SCT,0.00,WeatherDisplay:10.37,2013-06-30 19:30:00,
2013-06-30 14:36:00,83.4,50.5,30.01,SSW,204,10.0,13.0,32,0.00,SCT,SCT,0.00,WeatherDisplay:10.37,2013-06-30 19:36:00,
2013-06-30 14:42:00,84.3,52.0,30.01,NNW,332,9.0,12.0,33,0.00,SCT,SCT,0.00,WeatherDisplay:10.37,2013-06-30 19:42:00,
2013-06-30 14:48:00,84.0,52.6,30.01,NNE,22,6.0,9.0,34,0.00,SCT,SCT,0.00,WeatherDisplay:10.37,2013-06-30 19:48:00,
2013-06-30 14:54:00,84.2,51.9,30.00,ESE,115,6.0,14.0,33,0.00,SCT,SCT,0.00,WeatherDisplay:10.37,2013-06-30 19:54:00,
2013-06-30 15:00:00,84.6,52.3,30.00,ENE,63,6.0,13.0,33,0.00,SCT,SCT,0.00,WeatherDisplay:10.37,2013-06-30 20:00:00,
2013-06-30 15:06:00,84.8,51.6,30.00,ENE,64,7.0,12.0,32,0.00,SCT,SCT,0.00,WeatherDisplay:10.37,2013-06-30 20:06:00,
2013-06-30 15:12:00,84.2,52.0,30.00,NNE,19,8.0,13.0,33,0.00,SCT,SCT,0.00,WeatherDisplay:10.37,2013-06-30 20:12:00,
2013-06-30 15:18:00,84.1,51.9,30.00,NE,41,12.0,18.0,33,0.00,SCT,SCT,0.00,WeatherDisplay:10.37,2013-06-30 20:18:00,
2013-06-30 15:24:00,82.1,51.7,30.00,ENE,58,3.0,8.0,35,0.00,SCT,SCT,0.00,WeatherDisplay:10.37,2013-06-30 20:24:00,
2013-06-30 15:30:00,81.6,51.3,30.00,ENE,76,8.0,14.0,35,0.00,SCT,SCT,0.00,WeatherDisplay:10.37,2013-06-30 20:30:00,
2013-06-30 15:36:00,81.4,51.1,30.00,ENE,62,6.0,10.0,35,0.00,SCT,SCT,0.00,WeatherDisplay:10.37,2013-06-30 20:36:00,
2013-06-30 15:42:00,80.5,51.1,30.00,NE,56,6.0,12.0,36,0.00,SCT,SCT,0.00,WeatherDisplay:10.37,2013-06-30 20:42:00,
2013-06-30 15:48:00,81.0,51.6,30.00,East,81,8.0,14.0,36,0.00,SCT,SCT,0.00,WeatherDisplay:10.37,2013-06-30 20:48:00,
2013-06-30 15:54:00,82.3,51.9,30.01,NE,38,7.0,8.0,35,0.00,SCT,SCT,0.00,WeatherDisplay:10.37,2013-06-30 20:54:00,
2013-06-30 16:00:00,84.2,54.3,30.01,NNE,19,5.0,11.0,36,0.00,SCT,SCT,0.00,WeatherDisplay:10.37,2013-06-30 21:00:00,
2013-06-30 16:06:00,85.2,53.7,30.01,NE,50,7.0,11.0,34,0.00,BKN,BKN,0.00,WeatherDisplay:10.37,2013-06-30 21:06:00,
2013-06-30 16:12:00,81.9,53.1,30.01,East,92,8.0,16.0,37,0.00,BKN,BKN,0.00,WeatherDisplay:10.37,2013-06-30 21:12:00,
2013-06-30 16:18:00,82.4,54.3,30.01,ENE,57,3.0,12.0,38,0.00,BKN,BKN,0.00,WeatherDisplay:10.37,2013-06-30 21:18:00,
2013-06-30 16:24:00,81.8,53.7,30.01,NE,50,3.0,12.0,38,0.00,BKN,BKN,0.00,WeatherDisplay:10.37,2013-06-30 21:24:00,
2013-06-30 16:30:00,81.3,53.2,30.01,NE,41,5.0,9.0,38,0.00,BKN,BKN,0.00,WeatherDisplay:10.37,2013-06-30 21:30:00,
2013-06-30 16:36:00,81.4,52.6,30.01,NNE,28,10.0,16.0,37,0.00,BKN,BKN,0.00,WeatherDisplay:10.37,2013-06-30 21:36:00,
2013-06-30 16:42:00,81.7,53.6,30.01,East,82,5.0,5.0,38,0.00,BKN,BKN,0.00,WeatherDisplay:10.37,2013-06-30 21:42:00,
2013-06-30 16:48:00,81.7,53.6,30.01,ESE,113,5.0,5.0,38,0.00,BKN,BKN,0.00,WeatherDisplay:10.37,2013-06-30 21:48:00,
2013-06-30 16:54:00,81.7,53.6,30.01,ESE,113,5.0,5.0,38,0.00,BKN,BKN,0.00,WeatherDisplay:10.37,2013-06-30 21:54:00,
2013-06-30 17:00:00,81.7,53.6,30.01,ESE,113,5.0,5.0,38,0.00,BKN,BKN,0.00,WeatherDisplay:10.37,2013-06-30 22:00:00,
2013-06-30 17:15:00,81.0,52.3,30.01,ESE,106,8.0,13.0,37,0.00,SCT,SCT,0.00,WeatherDisplay:10.37,2013-06-30 22:15:00,
2013-06-30 17:21:00,82.5,52.8,30.01,SE,142,9.0,13.0,36,0.00,SCT,SCT,0.00,WeatherDisplay:10.37,2013-06-30 22:21:00,
2013-06-30 17:27:00,81.7,52.1,30.00,SW,214,7.0,11.0,36,0.00,SCT,SCT,0.00,WeatherDisplay:10.37,2013-06-30 22:27:00,
2013-06-30 17:33:00,82.7,52.2,30.00,SW,215,7.0,9.0,35,0.00,SCT,SCT,0.00,WeatherDisplay:10.37,2013-06-30 22:33:00,
2013-06-30 17:39:00,80.5,51.1,30.00,SE,125,6.0,12.0,36,0.00,SCT,SCT,0.00,WeatherDisplay:10.37,2013-06-30 22:39:00,
2013-06-30 17:45:00,81.8,50.7,30.00,East,81,7.0,11.0,34,0.00,SCT,SCT,0.00,WeatherDisplay:10.37,2013-06-30 22:45:00,
2013-06-30 17:51:00,82.6,50.5,30.00,North,349,12.0,14.0,33,0.00,SCT,SCT,0.00,WeatherDisplay:10.37,2013-06-30 22:51:00,
2013-06-30 17:57:00,80.8,50.6,30.00,NE,43,13.0,16.0,35,0.00,SCT,SCT,0.00,WeatherDisplay:10.37,2013-06-30 22:57:00,
2013-06-30 18:03:00,81.9,51.5,30.00,NNE,29,2.0,10.0,35,0.00,FEW,FEW,0.00,WeatherDisplay:10.37,2013-06-30 23:03:00,
2013-06-30 18:09:00,80.5,51.1,30.00,ENE,62,10.0,16.0,36,0.00,FEW,FEW,0.00,WeatherDisplay:10.37,2013-06-30 23:09:00,
2013-06-30 18:15:00,80.5,51.8,30.00,ENE,68,7.0,14.0,37,0.00,FEW,FEW,0.00,WeatherDisplay:10.37,2013-06-30 23:15:00,
2013-06-30 18:21:00,80.5,51.8,30.00,NE,45,7.0,17.0,37,0.00,FEW,FEW,0.00,WeatherDisplay:10.37,2013-06-30 23:21:00,
2013-06-30 18:27:00,80.3,51.7,30.00,NE,53,5.0,15.0,37,0.00,FEW,FEW,0.00,WeatherDisplay:10.37,2013-06-30 23:27:00,
2013-06-30 18:33:00,80.8,52.1,30.00,NE,35,3.0,9.0,37,0.00,FEW,FEW,0.00,WeatherDisplay:10.37,2013-06-30 23:33:00,
2013-06-30 18:39:00,80.5,51.1,30.00,NNE,21,8.0,13.0,36,0.00,FEW,FEW,0.00,WeatherDisplay:10.37,2013-06-30 23:39:00,
2013-06-30 18:45:00,80.5,49.5,30.00,NNE,28,10.0,14.0,34,0.00,FEW,FEW,0.00,WeatherDisplay:10.37,2013-06-30 23:45:00,
2013-06-30 18:51:00,79.0,51.2,30.00,ENE,70,8.0,17.0,38,0.00,FEW,FEW,0.00,WeatherDisplay:10.37,2013-06-30 23:51:00,
2013-06-30 18:57:00,79.2,52.8,30.00,ESE,102,5.0,8.0,40,0.00,FEW,FEW,0.00,WeatherDisplay:10.37,2013-06-30 23:57:00,
2013-06-30 19:03:00,79.0,52.6,30.00,ENE,76,6.0,12.0,40,0.00,FEW,FEW,0.00,WeatherDisplay:10.37,2013-07-01 00:03:00,
2013-06-30 19:09:00,78.5,52.2,30.00,ENE,74,8.0,9.0,40,0.00,FEW,FEW,0.00,WeatherDisplay:10.37,2013-07-01 00:09:00,
2013-06-30 19:15:00,77.9,52.9,30.00,NE,56,6.0,8.0,42,0.00,FEW,FEW,0.00,WeatherDisplay:10.37,2013-07-01 00:15:00,
2013-06-30 19:21:00,77.8,52.8,30.00,East,88,6.0,7.0,42,0.00,FEW,FEW,0.00,WeatherDisplay:10.37,2013-07-01 00:21:00,
2013-06-30 19:27:00,77.0,52.8,30.00,East,98,6.0,13.0,43,0.00,FEW,FEW,0.00,WeatherDisplay:10.37,2013-07-01 00:27:00,
2013-06-30 19:33:00,77.2,52.9,30.00,East,89,12.0,15.0,43,0.00,FEW,FEW,0.00,WeatherDisplay:10.37,2013-07-01 00:33:00,
2013-06-30 19:39:00,76.9,52.7,30.01,ENE,75,8.0,12.0,43,0.00,FEW,FEW,0.00,WeatherDisplay:10.37,2013-07-01 00:39:00,
2013-06-30 19:45:00,76.9,52.7,30.01,ENE,77,7.0,9.0,43,0.00,FEW,FEW,0.00,WeatherDisplay:10.37,2013-07-01 00:45:00,
2013-06-30 19:51:00,77.0,52.8,30.01,ENE,58,5.0,8.0,43,0.00,FEW,FEW,0.00,WeatherDisplay:10.37,2013-07-01 00:51:00,
2013-06-30 19:57:00,77.0,52.8,30.01,East,87,5.0,12.0,43,0.00,FEW,FEW,0.00,WeatherDisplay:10.37,2013-07-01 00:57:00,
2013-06-30 20:03:00,76.8,52.6,30.01,East,99,6.0,7.0,43,0.00,CLR,CLR,0.00,WeatherDisplay:10.37,2013-07-01 01:03:00,
2013-06-30 20:09:00,76.3,52.1,30.01,East,80,7.0,8.0,43,0.00,CLR,CLR,0.00,WeatherDisplay:10.37,2013-07-01 01:09:00,
2013-06-30 20:15:00,76.0,52.5,30.01,East,81,8.0,12.0,44,0.00,CLR,CLR,0.00,WeatherDisplay:10.37,2013-07-01 01:15:00,
2013-06-30 20:21:00,75.7,52.2,30.01,East,94,3.0,7.0,44,0.00,CLR,CLR,0.00,WeatherDisplay:10.37,2013-07-01 01:21:00,
2013-06-30 20:27:00,75.0,51.6,30.02,East,84,5.0,12.0,44,0.00,CLR,CLR,0.00,WeatherDisplay:10.37,2013-07-01 01:27:00,
2013-06-30 20:33:00,74.6,51.9,30.02,ENE,69,6.0,8.0,45,0.00,CLR,CLR,0.00,WeatherDisplay:10.37,2013-07-01 01:33:00,
2013-06-30 20:39:00,74.2,51.5,30.02,ENE,73,6.0,10.0,45,0.00,CLR,CLR,0.00,WeatherDisplay:10.37,2013-07-01 01:39:00,
2013-06-30 20:45:00,73.8,51.7,30.02,East,90,6.0,10.0,46,0.00,CLR,CLR,0.00,WeatherDisplay:10.37,2013-07-01 01:45:00,
2013-06-30 20:51:00,73.5,51.5,30.02,East,85,7.0,9.0,46,0.00,CLR,CLR,0.00,WeatherDisplay:10.37,2013-07-01 01:51:00,
2013-06-30 20:57:00,73.3,51.8,30.02,ENE,68,2.0,8.0,47,0.00,CLR,CLR,0.00,WeatherDisplay:10.37,2013-07-01 01:57:00,
2013-06-30 21:03:00,72.7,51.8,30.02,East,82,0.0,5.0,48,0.00,CLR,CLR,0.00,WeatherDisplay:10.37,2013-07-01 02:03:00,
2013-06-30 21:09:00,72.2,51.9,30.02,East,81,1.0,7.0,49,0.00,CLR,CLR,0.00,WeatherDisplay:10.37,2013-07-01 02:09:00,
2013-06-30 21:15:00,71.9,51.7,30.02,ENE,67,0.0,8.0,49,0.00,CLR,CLR,0.00,WeatherDisplay:10.37,2013-07-01 02:15:00,
2013-06-30 21:21:00,71.6,51.4,30.02,ENE,72,5.0,8.0,49,0.00,CLR,CLR,0.00,WeatherDisplay:10.37,2013-07-01 02:21:00,
2013-06-30 21:27:00,71.4,51.8,30.03,ENE,75,1.0,7.0,50,0.00,CLR,CLR,0.00,WeatherDisplay:10.37,2013-07-01 02:27:00,
2013-06-30 21:33:00,71.1,52.0,30.03,ENE,68,0.0,4.0,51,0.00,CLR,CLR,0.00,WeatherDisplay:10.37,2013-07-01 02:33:00,
2013-06-30 21:39:00,70.8,51.8,30.04,ENE,78,1.0,5.0,51,0.00,CLR,CLR,0.00,WeatherDisplay:10.37,2013-07-01 02:39:00,
2013-06-30 21:45:00,70.6,52.1,30.04,ENE,71,3.0,7.0,52,0.00,CLR,CLR,0.00,WeatherDisplay:10.37,2013-07-01 02:45:00,
2013-06-30 21:51:00,70.2,51.7,30.05,ENE,63,3.0,8.0,52,0.00,CLR,CLR,0.00,WeatherDisplay:10.37,2013-07-01 02:51:00,
2013-06-30 21:57:00,70.0,52.0,30.05,ENE,77,3.0,7.0,53,0.00,CLR,CLR,0.00,WeatherDisplay:10.37,2013-07-01 02:57:00,
2013-06-30 22:03:00,69.7,51.8,30.05,ENE,75,3.0,6.0,53,0.00,CLR,CLR,0.00,WeatherDisplay:10.37,2013-07-01 03:03:00,
2013-06-30 22:09:00,69.5,51.6,30.05,ENE,73,5.0,7.0,53,0.00,CLR,CLR,0.00,WeatherDisplay:10.37,2013-07-01 03:09:00,
2013-06-30 22:15:00,69.3,51.9,30.06,East,95,1.0,7.0,54,0.00,CLR,CLR,0.00,WeatherDisplay:10.37,2013-07-01 03:15:00,
2013-06-30 22:21:00,68.9,51.5,30.06,East,85,1.0,5.0,54,0.00,CLR,CLR,0.00,WeatherDisplay:10.37,2013-07-01 03:21:00,
2013-06-30 22:27:00,68.8,51.5,30.06,ENE,69,6.0,7.0,54,0.00,CLR,CLR,0.00,WeatherDisplay:10.37,2013-07-01 03:27:00,
2013-06-30 22:33:00,68.5,51.7,30.06,NE,49,2.0,5.0,55,0.00,CLR,CLR,0.00,WeatherDisplay:10.37,2013-07-01 03:33:00,
2013-06-30 22:39:00,68.3,51.5,30.06,ENE,76,5.0,7.0,55,0.00,CLR,CLR,0.00,WeatherDisplay:10.37,2013-07-01 03:39:00,
2013-06-30 22:45:00,68.1,51.3,30.06,East,79,1.0,4.0,55,0.00,CLR,CLR,0.00,WeatherDisplay:10.37,2013-07-01 03:45:00,
2013-06-30 22:51:00,67.9,51.6,30.07,ENE,68,3.0,8.0,56,0.00,CLR,CLR,0.00,WeatherDisplay:10.37,2013-07-01 03:51:00,
2013-06-30 22:57:00,67.5,51.2,30.07,ENE,57,2.0,6.0,56,0.00,CLR,CLR,0.00,WeatherDisplay:10.37,2013-07-01 03:57:00,
2013-06-30 23:03:00,67.5,51.2,30.07,ENE,76,1.0,4.0,56,0.00,CLR,CLR,0.00,WeatherDisplay:10.37,2013-07-01 04:03:00,
2013-06-30 23:06:00,67.3,51.5,30.07,East,83,2.0,5.0,57,0.00,CLR,CLR,0.00,WeatherDisplay:10.37,2013-07-01 04:06:00,
2013-06-30 23:09:00,67.3,51.5,30.07,ENE,77,2.0,5.0,57,0.00,CLR,CLR,0.00,WeatherDisplay:10.37,2013-07-01 04:09:00,
2013-06-30 23:15:00,67.0,51.2,30.07,ENE,67,1.0,7.0,57,0.00,CLR,CLR,0.00,WeatherDisplay:10.37,2013-07-01 04:15:00,
2013-06-30 23:18:00,66.9,51.1,30.07,ENE,66,2.0,7.0,57,0.00,CLR,CLR,0.00,WeatherDisplay:10.37,2013-07-01 04:18:00,
2013-06-30 23:24:00,66.6,51.3,30.07,ENE,77,3.0,7.0,58,0.00,CLR,CLR,0.00,WeatherDisplay:10.37,2013-07-01 04:24:00,
2013-06-30 23:30:00,66.2,51.0,30.07,East,81,5.0,7.0,58,0.00,CLR,CLR,0.00,WeatherDisplay:10.37,2013-07-01 04:30:00,
2013-06-30 23:36:00,66.2,50.9,30.07,NE,38,2.0,5.0,58,0.00,CLR,CLR,0.00,WeatherDisplay:10.37,2013-07-01 04:36:00,
2013-06-30 23:42:00,66.1,51.3,30.07,NE,39,0.0,7.0,59,0.00,CLR,CLR,0.00,WeatherDisplay:10.37,2013-07-01 04:42:00,
2013-06-30 23:48:00,66.1,51.3,30.07,East,95,3.0,7.0,59,0.00,CLR,CLR,0.00,WeatherDisplay:10.37,2013-07-01 04:48:00,
2013-06-30 23:54:00,65.7,51.4,30.07,East,95,5.0,7.0,60,0.00,CLR,CLR,0.00,WeatherDisplay:10.37,2013-07-01 04:54:00,